createdAt,value
2023-08-25T00:04:27.206Z,16.48
2023-08-25T00:06:54.142Z,17.75
2023-08-25T00:09:21.132Z,17.10
2023-08-25T00:11:48.720Z,16.88
2023-08-25T00:14:16.084Z,18.17
2023-08-25T00:16:43.385Z,18.10
2023-08-25T00:19:10.429Z,18.33
2023-08-25T00:21:37.400Z,17.75
2023-08-25T00:24:04.443Z,19.70
2023-08-25T00:26:33.449Z,18.33
2023-08-25T00:29:00.375Z,19.48
2023-08-25T00:31:27.349Z,19.42
2023-08-25T00:33:54.396Z,19.85
2023-08-25T00:36:21.349Z,20.83
2023-08-25T00:38:48.288Z,20.45
2023-08-25T00:41:15.170Z,20.92
2023-08-25T00:43:42.169Z,22.77
2023-08-25T00:46:09.964Z,21.58
2023-08-25T00:48:37.907Z,23.13
2023-08-25T00:51:06.462Z,24.77
2023-08-25T00:53:37.076Z,24.15
2023-08-25T00:56:04.755Z,28.88
2023-08-25T00:58:31.987Z,28.17
2023-08-25T01:01:02.411Z,29.08
2023-08-25T01:03:29.709Z,29.08
2023-08-25T01:05:57.256Z,30.63
2023-08-25T01:08:24.199Z,28.58
2023-08-25T01:11:04.491Z,30.75
2023-08-25T01:13:54.467Z,29.80
2023-08-25T01:16:27.238Z,27.05
2023-08-25T01:18:55.838Z,27.42
2023-08-25T01:21:23.670Z,28.98
2023-08-25T01:24:16.511Z,30.35
2023-08-25T01:26:43.595Z,28.83
2023-08-25T01:29:11.011Z,31.30
2023-08-25T01:31:38.074Z,31.33
2023-08-25T01:34:07.511Z,30.60
2023-08-25T01:37:01.268Z,31.00
2023-08-25T01:39:30.929Z,32.33
2023-08-25T01:42:03.168Z,32.95
2023-08-25T01:44:31.823Z,34.40
2023-08-25T01:47:06.366Z,33.97
2023-08-25T01:49:33.760Z,35.38
2023-08-25T01:57:21.959Z,35.47
2023-08-25T01:59:48.961Z,37.60
2023-08-25T02:02:15.838Z,36.50
2023-08-25T02:04:42.694Z,38.20
2023-08-25T02:07:09.785Z,37.55
2023-08-25T02:09:36.659Z,39.10
2023-08-25T02:12:03.688Z,39.53
2023-08-25T02:14:30.592Z,38.33
2023-08-25T02:16:57.840Z,40.45
2023-08-25T02:19:24.857Z,43.13
2023-08-25T02:21:51.729Z,41.38
2023-08-25T02:24:18.582Z,45.88
2023-08-25T02:26:45.484Z,45.13
2023-08-25T02:29:12.413Z,44.15
2023-08-25T02:31:39.324Z,44.17
2023-08-25T02:34:06.631Z,42.33
2023-08-25T02:36:33.542Z,44.88
2023-08-25T02:39:00.456Z,41.53
2023-08-25T02:41:27.286Z,43.47
2023-08-25T02:43:54.424Z,43.95
2023-08-25T02:46:21.924Z,43.22
2023-08-25T02:48:48.876Z,44.20
2023-08-25T02:51:16.286Z,45.22
2023-08-25T02:53:57.783Z,44.97
2023-08-25T02:56:24.671Z,45.45
2023-08-25T02:58:51.657Z,49.95
2023-08-25T03:01:18.590Z,48.78
2023-08-25T03:03:45.696Z,49.75
2023-08-25T03:06:12.680Z,47.03
2023-08-25T03:08:39.645Z,49.03
2023-08-25T03:11:06.518Z,50.35
2023-08-25T03:13:34.369Z,48.83
2023-08-25T03:16:03.183Z,55.35
2023-08-25T03:18:30.454Z,57.95
2023-08-25T03:20:57.472Z,55.92
2023-08-25T03:23:24.418Z,51.05
2023-08-25T03:25:51.493Z,58.38
2023-08-25T03:28:18.533Z,59.28
2023-08-25T03:30:45.495Z,60.80
2023-08-25T03:33:12.383Z,53.90
2023-08-25T03:35:39.706Z,55.45
2023-08-25T03:38:06.619Z,53.63
2023-08-25T03:40:33.738Z,53.67
2023-08-25T03:43:00.879Z,60.15
2023-08-25T03:45:27.813Z,56.03
2023-08-25T03:47:55.347Z,52.05
2023-08-25T03:50:23.064Z,57.00
2023-08-25T03:52:51.216Z,56.20
2023-08-25T03:55:18.272Z,52.38
2023-08-25T03:57:45.203Z,53.08
2023-08-25T04:00:12.657Z,52.65
2023-08-25T04:02:41.404Z,52.08
2023-08-25T04:05:09.141Z,50.95
2023-08-25T04:07:36.124Z,54.03
2023-08-25T04:10:04.547Z,51.85
2023-08-25T04:12:31.583Z,51.53
2023-08-25T04:41:38.124Z,53.25
2023-08-25T04:44:05.336Z,55.50
2023-08-25T04:46:32.953Z,51.33
2023-08-25T04:48:59.794Z,51.13
2023-08-25T04:51:26.629Z,50.75
2023-08-25T04:53:53.412Z,51.35
2023-08-25T04:56:20.300Z,49.60
2023-08-25T04:58:47.277Z,51.85
2023-08-25T05:01:15.155Z,49.00
2023-08-25T05:03:43.828Z,48.97
2023-08-25T05:06:10.716Z,49.45
2023-08-25T05:08:37.593Z,50.25
2023-08-25T05:22:01.108Z,47.57
2023-08-25T05:24:28.554Z,46.42
2023-08-25T05:26:55.895Z,49.80
2023-08-25T05:29:27.405Z,51.83
2023-08-25T05:31:55.429Z,46.85
2023-08-25T05:34:22.398Z,45.80
2023-08-25T05:36:49.213Z,48.47
2023-08-25T05:39:19.434Z,44.65
2023-08-25T05:41:46.491Z,45.30
2023-08-25T05:44:13.451Z,45.50
2023-08-25T05:46:41.332Z,48.75
2023-08-25T05:49:11.034Z,44.90
2023-08-25T05:51:37.862Z,46.35
2023-08-25T05:54:05.341Z,45.28
2023-08-25T05:56:32.392Z,43.40
2023-08-25T05:59:02.075Z,47.22
2023-08-25T06:01:32.826Z,46.40
2023-08-25T06:04:00.840Z,47.60
2023-08-25T06:06:27.962Z,45.58
2023-08-25T06:08:55.625Z,43.60
2023-08-25T06:11:23.696Z,44.50
2023-08-25T06:13:50.713Z,42.60
2023-08-25T06:21:43.309Z,43.38
2023-08-25T06:24:11.424Z,42.38
2023-08-25T06:54:09.091Z,43.67
2023-08-25T06:56:36.112Z,43.95
2023-08-25T06:59:03.062Z,43.95
2023-08-25T07:01:30.415Z,40.55
2023-08-25T07:03:57.408Z,42.45
2023-08-25T07:06:24.642Z,41.60
2023-08-25T07:08:52.936Z,41.67
2023-08-25T07:11:19.928Z,40.90
2023-08-25T07:13:46.833Z,39.47
2023-08-25T07:51:52.973Z,37.97
2023-08-25T07:54:19.880Z,35.15
2023-08-25T07:56:46.846Z,34.65
2023-08-25T08:12:17.760Z,31.60
2023-08-25T08:36:45.751Z,25.73
2023-08-25T08:39:13.494Z,26.05
2023-08-25T08:41:42.155Z,24.73
2023-08-25T08:49:24.492Z,27.50
2023-08-25T08:51:52.698Z,25.75
2023-08-25T08:54:23.125Z,26.15
2023-08-25T08:56:52.816Z,25.52
2023-08-25T08:59:19.692Z,27.50
2023-08-25T09:01:47.021Z,27.98
2023-08-25T09:04:14.909Z,26.70
2023-08-25T09:06:44.724Z,26.85
2023-08-25T09:31:31.032Z,23.73
2023-08-25T09:34:03.120Z,22.92
2023-08-25T09:36:33.978Z,25.83
2023-08-25T09:41:47.708Z,26.30
2023-08-25T09:44:15.332Z,26.58
2023-08-25T09:46:42.501Z,23.80
2023-08-25T09:49:14.562Z,27.55
2023-08-25T09:51:46.546Z,28.02
2023-08-25T09:54:16.877Z,56.92
2023-08-25T09:56:48.546Z,33.28
2023-08-25T09:59:16.713Z,30.95
2023-08-25T10:01:46.038Z,33.97
2023-08-25T10:04:14.524Z,33.63
2023-08-25T10:06:42.158Z,33.78
2023-08-25T10:09:10.091Z,34.00
2023-08-25T10:11:41.800Z,35.08
2023-08-25T10:14:13.627Z,35.63
2023-08-25T10:16:53.054Z,35.45
2023-08-25T10:19:31.240Z,36.60
2023-08-25T10:21:59.488Z,33.70
2023-08-25T10:32:55.793Z,30.25
2023-08-25T10:35:47.621Z,29.73
2023-08-25T10:38:20.941Z,30.40
2023-08-25T10:40:53.996Z,27.05
2023-08-25T10:43:34.962Z,25.75
2023-08-25T10:46:03.192Z,23.80
2023-08-25T10:48:37.077Z,24.05
2023-08-25T10:51:13.088Z,24.70
2023-08-25T10:53:47.967Z,23.25
2023-08-25T10:56:22.860Z,22.33
2023-08-25T10:59:10.468Z,22.35
2023-08-25T11:01:41.234Z,19.70
2023-08-25T11:06:59.292Z,19.17
2023-08-25T11:09:27.170Z,18.67
2023-08-25T11:14:43.454Z,19.55
2023-08-25T11:27:40.556Z,18.98
2023-08-25T11:30:11.197Z,19.95
2023-08-25T11:32:38.409Z,21.70
2023-08-25T11:35:05.750Z,21.38
2023-08-25T11:37:32.850Z,17.92
2023-08-25T11:40:02.209Z,16.58
2023-08-25T11:45:17.410Z,19.40
2023-08-25T11:47:44.532Z,13.82
2023-08-25T11:50:11.710Z,15.10
2023-08-25T11:52:38.764Z,14.75
2023-08-25T11:55:06.043Z,16.17
2023-08-25T11:57:37.098Z,13.60
2023-08-25T12:02:32.292Z,12.85
2023-08-25T12:05:04.185Z,15.65
2023-08-25T12:07:32.903Z,14.38
2023-08-25T12:10:01.935Z,13.18
2023-08-25T12:12:39.354Z,13.48
2023-08-25T12:15:10.303Z,12.98
2023-08-25T12:17:38.872Z,14.02
2023-08-25T12:20:17.141Z,14.93
2023-08-25T12:22:51.094Z,15.27
2023-08-25T12:25:18.538Z,16.13
2023-08-25T12:27:45.529Z,14.40
2023-08-25T12:30:13.018Z,15.23
2023-08-25T12:32:39.972Z,14.60
2023-08-25T12:35:07.259Z,14.95
2023-08-25T12:37:34.228Z,15.18
2023-08-25T12:40:01.243Z,16.98
2023-08-25T12:42:28.126Z,15.98
2023-08-25T12:44:55.001Z,17.77
2023-08-25T12:47:21.885Z,17.73
2023-08-25T12:49:48.751Z,20.17
2023-08-25T12:52:17.956Z,18.83
2023-08-25T12:54:45.297Z,20.02
2023-08-25T12:57:12.318Z,21.27
2023-08-25T13:05:13.013Z,25.75
2023-08-25T13:07:40.744Z,28.63
2023-08-25T13:15:30.563Z,28.83
2023-08-25T13:17:58.966Z,28.47
2023-08-25T13:20:26.128Z,27.00
2023-08-25T13:22:53.056Z,27.48
2023-08-25T13:25:20.269Z,29.20
2023-08-25T13:27:47.207Z,29.48
2023-08-25T13:30:14.245Z,29.98
2023-08-25T13:32:41.841Z,31.38
2023-08-25T13:35:09.438Z,31.90
2023-08-25T13:37:36.420Z,31.38
2023-08-25T13:40:12.869Z,32.05
2023-08-25T13:42:39.991Z,32.25
2023-08-25T13:59:18.843Z,32.50
2023-08-25T14:01:45.964Z,34.42
2023-08-25T14:04:12.873Z,34.05
2023-08-25T14:06:40.436Z,35.50
2023-08-25T14:09:07.342Z,37.58
2023-08-25T14:11:34.385Z,31.00
2023-08-25T14:14:03.806Z,30.73
2023-08-25T14:16:43.368Z,28.83
2023-08-25T14:19:10.313Z,25.83
2023-08-25T14:21:37.708Z,24.60
2023-08-25T14:40:36.617Z,21.70
2023-08-25T14:43:03.733Z,21.98
2023-08-25T14:48:28.211Z,21.58
2023-08-25T14:50:59.741Z,20.20
2023-08-25T14:53:29.851Z,20.42
2023-08-25T14:55:57.132Z,20.60
2023-08-25T14:58:24.440Z,21.77
2023-08-25T15:01:21.930Z,22.02
2023-08-25T15:03:48.907Z,19.98
2023-08-25T15:06:19.021Z,21.20
2023-08-25T15:08:49.418Z,19.73
2023-08-25T15:11:19.429Z,21.38
2023-08-25T15:13:46.629Z,19.35
2023-08-25T15:16:13.797Z,19.05
2023-08-25T15:18:41.203Z,18.55
2023-08-25T15:21:08.628Z,19.25
2023-08-25T15:23:35.692Z,18.15
2023-08-25T15:26:06.403Z,17.80
2023-08-25T15:28:34.000Z,18.13
2023-08-25T15:31:02.634Z,16.45
2023-08-25T15:33:30.104Z,17.45
2023-08-25T15:35:57.488Z,16.42
2023-08-25T15:38:27.488Z,15.98
2023-08-25T15:40:54.660Z,15.77
2023-08-25T15:43:23.226Z,16.17
2023-08-25T15:45:58.505Z,16.27
2023-08-25T15:48:31.675Z,15.73
2023-08-25T15:51:02.670Z,16.92
2023-08-25T15:53:29.791Z,16.08
2023-08-25T15:56:00.111Z,15.93
2023-08-25T15:58:30.580Z,14.82
2023-08-25T16:01:00.687Z,15.30
2023-08-25T16:03:28.655Z,14.80
2023-08-25T16:16:42.597Z,13.05
2023-08-25T16:19:09.513Z,13.73
2023-08-25T16:21:38.319Z,13.48
2023-08-25T16:24:05.891Z,14.38
2023-08-25T16:26:32.892Z,14.27
2023-08-25T16:29:00.110Z,15.38
2023-08-25T16:31:27.026Z,13.52
2023-08-25T16:33:53.981Z,14.05
2023-08-25T16:36:20.906Z,14.35
2023-08-25T16:38:47.805Z,13.35
2023-08-25T16:41:14.844Z,12.98
2023-08-25T16:43:41.851Z,12.00
2023-08-25T16:46:08.951Z,10.82
2023-08-25T16:48:43.259Z,11.77
2023-08-25T16:51:19.690Z,11.13
2023-08-25T16:53:49.215Z,10.30
2023-08-25T16:56:19.417Z,10.20
2023-08-25T16:58:49.167Z,10.10
2023-08-25T17:01:18.670Z,10.13
2023-08-25T17:03:46.035Z,11.02
2023-08-25T17:06:13.582Z,11.45
2023-08-25T17:38:24.344Z,6.45
2023-08-25T17:41:04.224Z,6.55
2023-08-25T17:43:34.795Z,6.07
2023-08-25T17:48:50.159Z,5.80
2023-08-25T17:51:17.517Z,5.63
2023-08-25T17:53:45.960Z,4.63
2023-08-25T18:04:29.210Z,5.88
2023-08-25T18:12:12.679Z,5.50
2023-08-25T18:14:39.524Z,4.88
2023-08-25T18:17:06.480Z,4.80
2023-08-25T18:19:34.738Z,4.90
2023-08-25T18:22:01.902Z,4.70
2023-08-25T18:24:32.383Z,4.72
2023-08-25T18:27:00.235Z,4.93
2023-08-25T18:29:32.380Z,4.70
2023-08-25T18:32:02.649Z,4.93
2023-08-25T18:34:32.701Z,4.88
2023-08-25T18:37:04.612Z,4.60
2023-08-25T18:39:36.538Z,4.70
2023-08-25T18:42:06.780Z,5.43
2023-08-25T18:44:34.858Z,5.10
2023-08-25T18:47:07.712Z,4.97
2023-08-25T18:49:34.802Z,5.30
2023-08-25T18:52:02.956Z,4.47
2023-08-25T18:59:59.004Z,4.35
2023-08-25T19:02:25.887Z,4.95
2023-08-25T19:04:53.340Z,4.60
2023-08-25T19:07:20.221Z,5.05
2023-08-25T19:09:50.870Z,5.10
2023-08-25T19:15:06.114Z,4.78
2023-08-25T19:17:33.137Z,3.85
2023-08-25T19:20:00.477Z,4.40
2023-08-25T19:22:27.547Z,4.18
2023-08-25T19:24:54.997Z,3.90
2023-08-25T19:27:23.187Z,4.10
2023-08-25T19:29:53.582Z,3.97
2023-08-25T19:32:32.931Z,3.78
2023-08-25T19:35:11.687Z,4.00
2023-08-25T19:37:43.391Z,4.07
2023-08-25T19:40:24.530Z,3.53
2023-08-25T19:45:37.270Z,4.00
2023-08-25T19:48:04.918Z,3.80
2023-08-25T19:50:32.025Z,3.22
2023-08-25T19:53:00.461Z,3.83
2023-08-25T19:55:30.227Z,3.72
2023-08-25T19:57:57.433Z,3.50
2023-08-25T20:00:26.314Z,3.60
2023-08-25T20:02:54.132Z,3.50
2023-08-25T20:05:22.822Z,3.40
2023-08-25T20:07:49.757Z,3.05
2023-08-25T20:10:16.982Z,2.88
2023-08-25T20:12:43.852Z,2.85
2023-08-25T20:15:12.912Z,3.58
2023-08-25T20:17:40.346Z,2.63
2023-08-25T20:28:30.895Z,2.60
2023-08-25T20:30:58.118Z,2.17
2023-08-25T20:33:25.263Z,2.53
2023-08-25T20:35:53.381Z,2.33
2023-08-25T20:38:20.310Z,2.47
2023-08-25T20:40:48.212Z,2.30
2023-08-25T20:43:16.656Z,2.38
2023-08-25T20:45:48.227Z,2.33
2023-08-25T20:48:16.828Z,2.70
2023-08-25T20:50:50.499Z,3.45
2023-08-25T20:53:19.336Z,3.33
2023-08-25T20:55:46.562Z,3.00
2023-08-25T20:58:13.820Z,2.55
2023-08-25T21:00:40.764Z,2.50
2023-08-25T21:03:07.818Z,2.50
2023-08-25T21:05:35.133Z,3.35
2023-08-25T21:08:02.247Z,2.88
2023-08-25T21:10:36.318Z,2.60
2023-08-25T21:13:05.638Z,3.22
2023-08-25T21:15:32.487Z,2.60
2023-08-25T21:17:59.575Z,2.92
2023-08-25T21:20:27.364Z,3.20
2023-08-25T21:22:54.665Z,2.53
2023-08-25T21:25:21.783Z,3.00
2023-08-25T21:27:48.823Z,3.50
2023-08-25T21:30:15.902Z,3.35
2023-08-25T21:32:42.857Z,3.22
2023-08-25T21:35:09.925Z,3.33
2023-08-25T21:37:36.770Z,3.78
2023-08-25T21:40:04.184Z,3.38
2023-08-25T21:42:31.232Z,3.83
2023-08-25T21:44:58.284Z,3.45
2023-08-25T21:47:25.451Z,3.13
2023-08-25T21:49:52.365Z,3.60
2023-08-25T21:52:19.335Z,3.72
2023-08-25T21:54:46.281Z,3.83
2023-08-25T21:57:13.212Z,3.28
2023-08-25T22:07:49.402Z,3.03
2023-08-25T22:10:16.409Z,3.00
2023-08-25T22:12:45.032Z,3.35
2023-08-25T22:17:54.827Z,3.05
2023-08-25T22:20:21.660Z,3.13
2023-08-25T22:22:48.832Z,3.20
2023-08-25T22:25:16.272Z,3.30
2023-08-25T22:27:43.128Z,2.75
2023-08-25T22:30:10.648Z,3.40
2023-08-25T22:35:07.620Z,3.28
2023-08-25T22:37:34.530Z,2.85
2023-08-25T22:40:01.675Z,3.42
2023-08-25T22:42:28.748Z,4.07
2023-08-25T22:44:55.620Z,3.00
2023-08-25T22:47:22.413Z,3.22
2023-08-25T22:49:49.281Z,3.20
2023-08-25T22:52:16.197Z,2.90
2023-08-25T22:54:43.095Z,2.95
2023-08-25T22:57:09.987Z,3.30
2023-08-25T22:59:40.094Z,2.90
2023-08-25T23:02:08.123Z,2.97
2023-08-25T23:04:35.199Z,2.58
2023-08-25T23:07:02.243Z,3.28
2023-08-25T23:09:29.141Z,3.03
2023-08-25T23:11:56.011Z,3.15
2023-08-25T23:14:22.890Z,2.50
2023-08-25T23:16:50.056Z,2.75
2023-08-25T23:19:17.058Z,3.60
2023-08-25T23:21:43.958Z,2.47
2023-08-25T23:24:10.961Z,3.03
2023-08-25T23:26:37.936Z,3.13
2023-08-25T23:29:04.954Z,2.95
2023-08-25T23:31:31.919Z,2.70
2023-08-25T23:33:58.809Z,3.28
2023-08-25T23:36:26.180Z,3.08
2023-08-25T23:38:53.098Z,2.70
2023-08-25T23:41:20.002Z,2.58
2023-08-25T23:43:46.979Z,2.65
2023-08-25T23:46:13.998Z,2.88
2023-08-25T23:48:41.254Z,2.60
2023-08-25T23:51:08.391Z,2.80
2023-08-25T23:53:35.606Z,2.40
2023-08-25T23:56:02.511Z,2.72
2023-08-25T23:58:29.767Z,3.17
